createdAt,value
2022-12-06T00:00:32.211Z,86.30
2022-12-06T00:03:39.731Z,83.80
2022-12-06T00:06:48.073Z,83.80
2022-12-06T00:09:54.190Z,82.90
2022-12-06T00:12:59.750Z,85.00
2022-12-06T00:16:07.585Z,81.10
2022-12-06T00:19:16.474Z,82.40
2022-12-06T00:22:22.034Z,80.30
2022-12-06T00:25:27.875Z,81.90
2022-12-06T00:28:33.738Z,80.90
2022-12-06T00:31:39.353Z,79.90
2022-12-06T00:34:45.038Z,78.30
2022-12-06T00:37:50.548Z,79.60
2022-12-06T00:41:03.771Z,79.00
2022-12-06T00:44:09.731Z,77.90
2022-12-06T00:47:15.326Z,80.40
2022-12-06T00:50:20.980Z,80.40
2022-12-06T00:53:26.934Z,62.10
2022-12-06T00:56:32.791Z,80.00
2022-12-06T00:59:38.340Z,79.40
2022-12-06T01:02:43.979Z,82.60
2022-12-06T01:05:52.060Z,84.00
2022-12-06T01:08:58.676Z,80.30
2022-12-06T01:12:04.365Z,79.40
2022-12-06T01:15:11.897Z,80.10
2022-12-06T01:18:17.678Z,81.60
2022-12-06T01:21:24.391Z,79.30
2022-12-06T01:24:30.005Z,75.70
2022-12-06T01:27:35.449Z,77.40
2022-12-06T01:30:43.433Z,77.50
2022-12-06T01:33:49.726Z,77.00
2022-12-06T01:36:55.275Z,76.80
2022-12-06T01:40:01.065Z,80.60
2022-12-06T01:43:06.987Z,81.10
2022-12-06T01:46:29.977Z,79.70
2022-12-06T01:49:37.639Z,84.10
2022-12-06T01:52:51.008Z,74.00
2022-12-06T01:55:57.139Z,72.90
2022-12-06T01:59:03.572Z,72.60
2022-12-06T02:02:10.191Z,73.50
2022-12-06T02:05:16.843Z,73.10
2022-12-06T02:08:23.263Z,74.90
2022-12-06T02:11:33.640Z,76.30
2022-12-06T02:14:41.758Z,79.30
2022-12-06T02:21:01.299Z,81.40
2022-12-06T02:24:38.660Z,82.10
2022-12-06T02:28:20.828Z,81.90
2022-12-06T02:31:30.237Z,84.10
2022-12-06T02:34:45.415Z,79.90
2022-12-06T02:37:55.063Z,77.00
2022-12-06T02:41:04.767Z,77.60
2022-12-06T02:44:20.189Z,75.40
2022-12-06T02:47:31.780Z,77.80
2022-12-06T02:50:40.969Z,76.10
2022-12-06T02:53:49.733Z,77.40
2022-12-06T02:56:55.257Z,77.40
2022-12-06T03:00:01.001Z,78.10
2022-12-06T03:03:33.314Z,77.00
2022-12-06T03:06:58.982Z,73.50
2022-12-06T03:10:23.433Z,72.00
2022-12-06T03:13:35.787Z,71.10
2022-12-06T03:16:48.483Z,67.30
2022-12-06T03:20:03.882Z,60.90
2022-12-06T03:23:12.724Z,65.70
2022-12-06T03:26:24.971Z,64.50
2022-12-06T03:29:35.512Z,66.00
2022-12-06T03:32:46.203Z,65.10
2022-12-06T03:35:54.318Z,62.80
2022-12-06T03:39:02.892Z,62.60
2022-12-06T03:42:09.710Z,64.90
2022-12-06T03:45:16.466Z,64.40
2022-12-06T03:48:27.539Z,64.20
2022-12-06T03:51:36.137Z,66.20
2022-12-06T03:54:43.410Z,64.40
2022-12-06T03:57:49.035Z,65.90
2022-12-06T04:00:54.791Z,64.40
2022-12-06T04:04:00.875Z,63.90
2022-12-06T04:07:06.469Z,64.90
2022-12-06T04:10:13.308Z,64.70
2022-12-06T04:13:19.937Z,63.30
2022-12-06T04:16:43.120Z,62.40
2022-12-06T04:19:52.050Z,57.50
2022-12-06T04:23:07.007Z,60.20
2022-12-06T04:26:14.921Z,59.80
2022-12-06T04:29:38.187Z,59.50
2022-12-06T04:33:01.222Z,57.50
2022-12-06T04:36:25.228Z,56.70
2022-12-06T04:39:30.950Z,57.80
2022-12-06T04:42:54.143Z,56.90
2022-12-06T04:45:59.624Z,58.70
2022-12-06T04:49:05.179Z,55.20
2022-12-06T04:52:11.916Z,54.60
2022-12-06T04:55:18.067Z,59.50
2022-12-06T04:58:23.625Z,56.70
2022-12-06T05:01:29.149Z,55.50
2022-12-06T05:04:35.243Z,54.60
2022-12-06T05:07:40.742Z,53.00
2022-12-06T05:10:49.771Z,55.00
2022-12-06T05:13:55.372Z,56.30
2022-12-06T05:17:00.843Z,56.60
2022-12-06T05:20:07.990Z,56.10
2022-12-06T05:23:13.658Z,57.70
2022-12-06T05:26:20.744Z,63.10
2022-12-06T05:29:26.223Z,60.70
2022-12-06T05:32:31.740Z,64.80
2022-12-06T05:35:39.895Z,64.30
2022-12-06T05:38:51.130Z,61.00
2022-12-06T05:41:57.195Z,62.10
2022-12-06T05:45:02.743Z,47.00
2022-12-06T05:48:09.563Z,59.40
2022-12-06T05:51:15.345Z,57.00
2022-12-06T05:54:21.235Z,55.50
2022-12-06T05:57:26.783Z,57.00
2022-12-06T06:00:32.643Z,54.60
2022-12-06T06:03:42.448Z,55.20
2022-12-06T06:06:51.625Z,54.40
2022-12-06T06:09:57.260Z,55.10
2022-12-06T06:13:04.464Z,54.40
2022-12-06T06:16:10.262Z,54.30
2022-12-06T06:19:16.276Z,53.10
2022-12-06T06:22:23.261Z,53.70
2022-12-06T06:25:28.915Z,60.50
2022-12-06T06:28:34.465Z,59.40
2022-12-06T06:31:40.048Z,58.80
2022-12-06T06:34:45.590Z,55.40
2022-12-06T06:37:51.112Z,57.70
2022-12-06T06:40:56.660Z,58.20
2022-12-06T06:44:02.210Z,48.70
2022-12-06T06:47:07.964Z,47.30
2022-12-06T06:50:14.618Z,46.50
2022-12-06T06:53:20.604Z,45.10
2022-12-06T06:56:26.148Z,43.30
2022-12-06T06:59:31.698Z,43.50
2022-12-06T07:02:39.668Z,41.70
2022-12-06T07:05:45.332Z,41.90
2022-12-06T07:08:51.007Z,42.10
2022-12-06T07:11:57.683Z,41.60
2022-12-06T07:15:03.125Z,40.10
2022-12-06T07:18:08.784Z,41.60
2022-12-06T07:21:16.437Z,38.00
2022-12-06T07:24:22.133Z,37.40
2022-12-06T07:27:27.682Z,37.00
2022-12-06T07:30:33.304Z,39.10
2022-12-06T07:33:39.445Z,38.30
2022-12-06T07:36:44.946Z,38.30
2022-12-06T07:39:50.378Z,38.20
2022-12-06T07:43:13.353Z,39.30
2022-12-06T07:46:18.844Z,38.00
2022-12-06T07:49:24.797Z,39.00
2022-12-06T07:52:33.937Z,39.20
2022-12-06T07:55:39.466Z,38.30
2022-12-06T07:58:45.398Z,36.90
2022-12-06T08:01:51.336Z,37.30
2022-12-06T08:04:58.534Z,35.60
2022-12-06T08:08:04.139Z,34.70
2022-12-06T08:11:10.770Z,33.90
2022-12-06T08:14:16.959Z,37.70
2022-12-06T08:17:22.429Z,34.40
2022-12-06T08:20:27.931Z,33.00
2022-12-06T08:23:34.651Z,32.70
2022-12-06T08:26:40.354Z,32.60
2022-12-06T08:29:46.319Z,32.50
2022-12-06T08:32:51.759Z,31.10
2022-12-06T08:35:57.315Z,32.00
2022-12-06T08:39:02.916Z,31.80
2022-12-06T08:42:08.620Z,32.00
2022-12-06T08:45:14.204Z,32.00
2022-12-06T08:48:19.719Z,33.70
2022-12-06T08:51:25.574Z,32.70
2022-12-06T08:54:31.434Z,33.00
2022-12-06T08:57:36.973Z,33.00
2022-12-06T09:00:42.427Z,31.10
2022-12-06T09:03:48.163Z,31.40
2022-12-06T09:06:53.935Z,31.30
2022-12-06T09:09:59.897Z,31.70
2022-12-06T09:16:15.794Z,33.00
2022-12-06T09:19:21.835Z,31.90
2022-12-06T09:22:27.520Z,32.80
2022-12-06T09:25:33.069Z,33.50
2022-12-06T09:28:41.074Z,34.10
2022-12-06T09:31:46.811Z,32.30
2022-12-06T09:34:52.862Z,32.30
2022-12-06T09:37:59.402Z,35.30
2022-12-06T09:41:12.852Z,34.60
2022-12-06T09:44:32.319Z,34.30
2022-12-06T09:47:53.836Z,34.80
2022-12-06T09:51:14.871Z,33.80
2022-12-06T09:54:33.935Z,36.50
2022-12-06T09:57:46.592Z,36.30
2022-12-06T10:01:01.256Z,35.50
2022-12-06T10:04:43.032Z,37.30
2022-12-06T10:07:55.954Z,37.50
2022-12-06T10:11:09.921Z,36.90
2022-12-06T10:14:31.646Z,37.60
2022-12-06T10:17:52.262Z,39.50
2022-12-06T10:21:10.800Z,39.50
2022-12-06T10:24:29.668Z,39.00
2022-12-06T10:27:40.687Z,38.00
2022-12-06T10:30:54.642Z,39.00
2022-12-06T10:34:06.052Z,36.50
2022-12-06T10:37:23.610Z,38.00
2022-12-06T10:40:38.169Z,37.80
2022-12-06T10:43:53.550Z,37.10
2022-12-06T10:47:04.868Z,40.00
2022-12-06T10:50:24.001Z,39.80
2022-12-06T10:53:35.083Z,38.30
2022-12-06T10:56:43.136Z,38.80
2022-12-06T10:59:55.183Z,37.50
2022-12-06T11:03:12.311Z,37.20
2022-12-06T11:06:27.031Z,36.70
2022-12-06T11:09:39.896Z,38.60
2022-12-06T11:12:46.671Z,37.40
2022-12-06T11:15:59.410Z,38.10
2022-12-06T11:19:21.833Z,40.80
2022-12-06T11:22:37.562Z,39.30
2022-12-06T11:26:00.175Z,37.20
2022-12-06T11:29:11.249Z,37.60
2022-12-06T11:32:19.361Z,37.40
2022-12-06T11:35:27.782Z,35.40
2022-12-06T11:38:34.754Z,35.60
2022-12-06T11:41:40.419Z,36.90
2022-12-06T11:45:01.370Z,34.60
2022-12-06T11:48:18.199Z,34.30
2022-12-06T11:51:25.741Z,34.50
2022-12-06T11:54:35.167Z,32.50
2022-12-06T11:57:46.254Z,34.20
2022-12-06T12:01:04.271Z,38.20
2022-12-06T12:04:27.867Z,39.10
2022-12-06T12:07:35.095Z,35.20
2022-12-06T12:10:44.392Z,44.90
2022-12-06T12:13:55.884Z,35.50
2022-12-06T12:17:04.808Z,34.60
2022-12-06T12:20:23.321Z,35.20
2022-12-06T12:23:33.999Z,36.40
2022-12-06T12:26:42.597Z,34.70
2022-12-06T12:29:48.309Z,37.60
2022-12-06T12:33:09.591Z,36.00
2022-12-06T12:36:23.057Z,35.20
2022-12-06T12:39:42.331Z,40.20
2022-12-06T12:42:48.951Z,36.60
2022-12-06T12:46:20.827Z,36.70
2022-12-06T12:49:31.362Z,35.90
2022-12-06T12:52:39.955Z,37.00
2022-12-06T12:55:46.706Z,36.20
2022-12-06T12:58:55.326Z,35.60
2022-12-06T13:02:06.766Z,36.20
2022-12-06T13:05:35.481Z,38.20
2022-12-06T13:08:42.627Z,38.10
2022-12-06T13:11:54.075Z,36.40
2022-12-06T13:15:05.193Z,37.40
2022-12-06T13:18:15.251Z,36.10
2022-12-06T13:21:24.348Z,35.00
2022-12-06T13:24:32.586Z,35.50
2022-12-06T13:27:41.661Z,34.50
2022-12-06T13:30:50.397Z,35.20
2022-12-06T13:34:01.631Z,39.40
2022-12-06T13:37:27.248Z,36.90
2022-12-06T13:40:55.947Z,42.90
2022-12-06T13:44:01.594Z,49.60
2022-12-06T13:50:56.165Z,43.80
2022-12-06T13:54:37.609Z,40.20
2022-12-06T13:57:43.362Z,43.00
2022-12-06T14:00:53.861Z,42.40
2022-12-06T14:04:01.316Z,35.60
2022-12-06T14:10:15.643Z,52.50
2022-12-06T14:13:22.880Z,35.60
2022-12-06T14:16:32.619Z,29.40
2022-12-06T14:19:45.574Z,39.80
2022-12-06T14:22:51.372Z,33.10
2022-12-06T14:26:14.016Z,32.80
2022-12-06T14:29:24.828Z,25.50
2022-12-06T14:32:39.082Z,20.90
2022-12-06T14:35:52.470Z,22.90
2022-12-06T14:39:02.499Z,20.80
2022-12-06T14:42:37.753Z,22.20
2022-12-06T14:45:45.190Z,24.10
2022-12-06T14:49:08.523Z,22.80
2022-12-06T14:52:23.208Z,18.80
2022-12-06T14:55:31.007Z,15.40
2022-12-06T14:58:38.016Z,15.10
2022-12-06T15:01:54.351Z,14.20
2022-12-06T15:05:00.687Z,16.00
2022-12-06T15:12:00.330Z,12.70
2022-12-06T15:15:07.081Z,12.70
2022-12-06T15:18:25.559Z,12.90
2022-12-06T15:21:31.195Z,12.50
2022-12-06T15:24:36.780Z,11.20
2022-12-06T15:27:42.348Z,11.50
2022-12-06T15:30:48.311Z,10.30
2022-12-06T15:33:54.125Z,11.30
2022-12-06T15:37:36.850Z,11.40
2022-12-06T15:40:26.830Z,9.60
2022-12-06T15:43:34.901Z,10.10
2022-12-06T15:46:40.988Z,9.60
2022-12-06T15:49:46.751Z,9.40
2022-12-06T15:52:52.282Z,9.70
2022-12-06T15:55:58.467Z,10.60
2022-12-06T15:59:04.004Z,9.80
2022-12-06T16:02:15.903Z,10.00
2022-12-06T16:05:21.716Z,9.70
2022-12-06T16:08:27.375Z,10.10
2022-12-06T16:11:33.070Z,11.30
2022-12-06T16:14:38.626Z,10.30
2022-12-06T16:17:44.275Z,11.90
2022-12-06T16:20:50.507Z,11.30
2022-12-06T16:24:13.073Z,11.10
2022-12-06T16:27:19.970Z,11.50
2022-12-06T16:30:35.272Z,12.00
2022-12-06T16:33:41.715Z,12.80
2022-12-06T16:37:02.030Z,13.40
2022-12-06T16:40:19.928Z,18.20
2022-12-06T16:43:25.711Z,26.10
2022-12-06T16:46:33.829Z,11.10
2022-12-06T16:49:47.007Z,14.60
2022-12-06T16:52:55.209Z,11.70
2022-12-06T16:56:00.806Z,13.10
2022-12-06T16:59:06.874Z,12.80
2022-12-06T17:02:24.510Z,13.00
2022-12-06T17:05:30.517Z,16.40
2022-12-06T17:08:36.264Z,19.10
2022-12-06T17:12:00.199Z,21.90
2022-12-06T17:15:06.583Z,16.50
2022-12-06T17:21:17.375Z,15.00
2022-12-06T17:24:25.668Z,21.20
2022-12-06T17:27:31.321Z,18.10
2022-12-06T17:30:36.974Z,14.40
2022-12-06T17:33:42.706Z,14.90
2022-12-06T17:36:48.648Z,15.90
2022-12-06T17:39:54.230Z,15.80
2022-12-06T17:43:02.519Z,15.70
2022-12-06T17:46:11.430Z,22.10
2022-12-06T17:49:19.361Z,17.60
2022-12-06T17:52:25.341Z,27.40
2022-12-06T17:55:31.089Z,20.30
2022-12-06T17:58:37.043Z,23.50
2022-12-06T18:02:14.851Z,18.30
2022-12-06T18:05:10.477Z,19.60
2022-12-06T18:08:16.210Z,17.40
2022-12-06T18:11:23.876Z,17.40
2022-12-06T18:14:29.889Z,17.30
2022-12-06T18:17:35.540Z,17.50
2022-12-06T18:20:43.286Z,18.10
2022-12-06T18:24:19.818Z,17.00
2022-12-06T18:27:16.356Z,15.50
2022-12-06T18:30:22.315Z,13.00
2022-12-06T18:33:31.114Z,12.60
2022-12-06T18:36:36.896Z,12.80
2022-12-06T18:39:42.441Z,10.40
2022-12-06T18:42:48.032Z,9.00
2022-12-06T18:46:00.357Z,9.10
2022-12-06T18:49:06.188Z,8.60
2022-12-06T18:52:12.834Z,7.80
2022-12-06T18:55:18.861Z,7.90
2022-12-06T18:58:24.551Z,7.80
2022-12-06T19:01:33.674Z,7.70
2022-12-06T19:04:39.298Z,6.80
2022-12-06T19:07:45.854Z,7.00
2022-12-06T19:10:51.479Z,6.10
2022-12-06T19:13:58.423Z,6.40
2022-12-06T19:17:04.271Z,6.40
2022-12-06T19:20:11.235Z,5.90
2022-12-06T19:23:17.095Z,6.20
2022-12-06T19:26:23.425Z,5.90
2022-12-06T19:32:34.264Z,5.80
2022-12-06T19:38:44.577Z,5.80
2022-12-06T19:42:04.869Z,6.50
2022-12-06T19:45:12.551Z,7.00
2022-12-06T19:48:18.222Z,6.90
2022-12-06T19:51:24.408Z,6.20
2022-12-06T19:54:32.986Z,6.90
2022-12-06T19:57:40.422Z,6.80
2022-12-06T20:00:50.311Z,6.10
2022-12-06T20:03:56.511Z,6.30
2022-12-06T20:07:02.488Z,6.90
2022-12-06T20:10:10.148Z,7.00
2022-12-06T20:13:15.687Z,6.60
2022-12-06T20:16:21.412Z,4.20
2022-12-06T20:19:27.541Z,6.30
2022-12-06T20:22:33.210Z,6.90
2022-12-06T20:25:38.792Z,5.90
2022-12-06T20:28:45.221Z,6.70
2022-12-06T20:31:52.101Z,5.50
2022-12-06T20:34:57.823Z,5.60
2022-12-06T20:38:03.497Z,5.50
2022-12-06T20:41:14.473Z,5.10
2022-12-06T20:44:21.355Z,4.80
2022-12-06T20:47:27.072Z,5.20
2022-12-06T20:50:32.657Z,5.90
2022-12-06T20:53:38.415Z,5.60
2022-12-06T20:56:44.338Z,5.70
2022-12-06T20:59:50.023Z,4.30
2022-12-06T21:02:55.735Z,6.10
2022-12-06T21:06:02.573Z,5.00
2022-12-06T21:09:08.145Z,6.20
2022-12-06T21:12:13.721Z,6.00
2022-12-06T21:15:19.615Z,5.30
2022-12-06T21:18:28.572Z,5.10
2022-12-06T21:21:37.674Z,4.70
2022-12-06T21:24:43.327Z,5.10
2022-12-06T21:27:48.923Z,4.90
2022-12-06T21:30:55.596Z,5.20
2022-12-06T21:34:01.927Z,5.80
2022-12-06T21:40:13.700Z,5.20
2022-12-06T21:43:19.265Z,5.40
2022-12-06T21:46:26.929Z,6.10
2022-12-06T21:49:32.555Z,5.10
2022-12-06T21:52:38.290Z,5.60
2022-12-06T21:55:43.944Z,5.10
2022-12-06T21:58:50.422Z,5.90
2022-12-06T22:01:56.014Z,9.30
2022-12-06T22:05:01.671Z,5.80
2022-12-06T22:08:08.075Z,5.10
2022-12-06T22:11:16.060Z,5.30
2022-12-06T22:14:22.051Z,4.60
2022-12-06T22:17:28.014Z,5.10
2022-12-06T22:20:33.612Z,5.20
2022-12-06T22:23:39.627Z,5.30
2022-12-06T22:26:45.195Z,6.10
2022-12-06T22:29:50.820Z,5.60
2022-12-06T22:32:56.370Z,5.70
2022-12-06T22:36:03.561Z,5.60
2022-12-06T22:39:09.340Z,5.50
2022-12-06T22:42:14.864Z,5.30
2022-12-06T22:45:20.539Z,4.80
2022-12-06T22:48:26.302Z,5.40
2022-12-06T22:51:33.301Z,5.00
2022-12-06T22:54:39.210Z,5.00
2022-12-06T22:57:44.864Z,4.00
2022-12-06T23:00:50.518Z,4.30
2022-12-06T23:03:57.104Z,4.40
2022-12-06T23:07:03.304Z,4.20
2022-12-06T23:10:11.660Z,4.00
2022-12-06T23:13:17.214Z,3.90
2022-12-06T23:16:24.787Z,4.40
2022-12-06T23:19:30.566Z,4.00
2022-12-06T23:22:36.128Z,4.30
2022-12-06T23:25:41.770Z,4.00
2022-12-06T23:28:48.132Z,4.50
2022-12-06T23:34:57.948Z,4.30
2022-12-06T23:38:03.479Z,4.00
2022-12-06T23:41:12.275Z,4.00
2022-12-06T23:44:18.039Z,4.00
2022-12-06T23:47:23.630Z,4.00
2022-12-06T23:50:29.235Z,4.50
2022-12-06T23:53:35.913Z,4.30
2022-12-06T23:56:42.997Z,4.30
2022-12-06T23:59:48.650Z,4.50
